createdAt,value
2023-03-24T00:03:01.599Z,12.13
2023-03-24T00:08:06.857Z,12.28
2023-03-24T00:13:10.199Z,12.42
2023-03-24T00:18:13.568Z,12.34
2023-03-24T00:23:18.309Z,12.42
2023-03-24T00:28:21.737Z,12.43
2023-03-24T00:33:25.439Z,12.44
2023-03-24T00:38:30.269Z,12.49
2023-03-24T00:43:34.025Z,12.45
2023-03-24T00:48:38.304Z,12.40
2023-03-24T00:53:43.738Z,12.36
2023-03-24T00:58:47.112Z,12.34
2023-03-24T01:03:51.060Z,12.25
2023-03-24T01:08:56.333Z,12.16
2023-03-24T01:13:59.581Z,12.16
2023-03-24T01:19:02.914Z,11.99
2023-03-24T01:24:08.417Z,11.82
2023-03-24T01:29:11.737Z,11.70
2023-03-24T01:34:14.900Z,11.74
2023-03-24T01:39:19.670Z,11.40
2023-03-24T01:44:32.836Z,11.45
2023-03-24T01:49:39.414Z,11.36
2023-03-24T01:54:47.135Z,11.40
2023-03-24T01:59:55.390Z,11.36
2023-03-24T02:05:24.237Z,11.00
2023-03-24T02:10:34.055Z,11.25
2023-03-24T02:15:43.885Z,10.97
2023-03-24T02:21:16.828Z,11.24
2023-03-24T02:26:52.983Z,11.23
2023-03-24T02:32:13.843Z,11.35
2023-03-24T02:37:43.153Z,11.46
2023-03-24T02:43:15.612Z,11.34
2023-03-24T02:48:25.472Z,11.17
2023-03-24T02:53:34.252Z,11.12
2023-03-24T02:59:05.905Z,11.13
2023-03-24T03:04:16.860Z,11.22
2023-03-24T03:09:23.077Z,10.89
2023-03-24T03:14:35.372Z,11.15
2023-03-24T03:19:43.583Z,11.00
2023-03-24T03:24:53.206Z,10.85
2023-03-24T03:30:02.863Z,10.84
2023-03-24T03:35:11.008Z,10.66
2023-03-24T03:40:18.939Z,10.69
2023-03-24T03:45:28.100Z,10.50
2023-03-24T03:50:32.414Z,10.50
2023-03-24T03:55:42.918Z,10.41
2023-03-24T04:00:47.876Z,10.64
2023-03-24T04:06:25.369Z,10.30
2023-03-24T04:11:55.005Z,10.77
2023-03-24T04:17:57.648Z,10.59
2023-03-24T04:23:40.041Z,10.41
2023-03-24T04:28:52.722Z,10.52
2023-03-24T04:34:03.792Z,10.47
2023-03-24T04:39:08.058Z,10.06
2023-03-24T04:44:22.646Z,10.28
2023-03-24T04:49:45.071Z,10.41
2023-03-24T04:54:48.974Z,10.27
2023-03-24T04:59:52.766Z,10.11
2023-03-24T05:04:58.749Z,10.23
2023-03-24T05:10:11.912Z,10.10
2023-03-24T05:15:24.832Z,10.23
2023-03-24T05:20:35.089Z,10.50
2023-03-24T05:25:49.368Z,10.64
2023-03-24T05:30:54.518Z,11.05
2023-03-24T05:36:13.689Z,11.50
2023-03-24T05:41:19.234Z,11.70
2023-03-24T05:46:24.587Z,11.76
2023-03-24T05:51:31.295Z,11.93
2023-03-24T05:56:40.618Z,12.00
2023-03-24T06:02:07.487Z,12.10
2023-03-24T06:07:26.713Z,12.24
2023-03-24T06:12:32.104Z,12.06
2023-03-24T06:17:38.545Z,11.98
2023-03-24T06:22:50.511Z,12.00
2023-03-24T06:28:04.294Z,11.87
2023-03-24T06:33:09.441Z,11.85
2023-03-24T06:38:14.888Z,11.74
2023-03-24T06:43:19.703Z,11.78
2023-03-24T06:48:23.111Z,11.70
2023-03-24T06:53:30.136Z,11.81
2023-03-24T06:58:34.022Z,11.79
2023-03-24T07:03:42.087Z,11.67
2023-03-24T07:09:07.381Z,11.79
2023-03-24T07:14:10.942Z,12.13
2023-03-24T07:19:14.270Z,12.48
2023-03-24T07:24:22.245Z,12.48
2023-03-24T07:29:35.191Z,12.29
2023-03-24T07:34:53.684Z,12.77
2023-03-24T07:39:58.749Z,13.11
2023-03-24T07:45:01.960Z,13.25
2023-03-24T07:50:10.146Z,13.64
2023-03-24T07:55:15.872Z,13.13
2023-03-24T08:00:33.795Z,13.53
2023-03-24T08:05:55.273Z,13.93
2023-03-24T08:11:08.072Z,15.04
2023-03-24T08:16:11.576Z,14.62
2023-03-24T08:21:14.920Z,14.97
2023-03-24T08:26:19.713Z,14.94
2023-03-24T08:31:23.076Z,14.94
2023-03-24T08:36:26.647Z,15.14
2023-03-24T08:41:35.246Z,14.55
2023-03-24T08:46:39.565Z,14.88
2023-03-24T08:51:43.170Z,15.16
2023-03-24T08:56:47.965Z,14.89
2023-03-24T09:01:51.328Z,14.70
2023-03-24T09:07:01.685Z,14.74
2023-03-24T09:12:08.054Z,14.91
2023-03-24T09:17:11.506Z,14.83
2023-03-24T09:22:14.731Z,14.92
2023-03-24T09:27:19.436Z,15.09
2023-03-24T09:32:22.693Z,15.68
2023-03-24T09:37:25.837Z,16.02
2023-03-24T09:42:35.434Z,15.96
2023-03-24T09:47:43.115Z,16.33
2023-03-24T09:52:49.856Z,15.56
2023-03-24T09:57:57.691Z,16.62
2023-03-24T10:03:03.902Z,16.72
2023-03-24T10:08:16.402Z,16.07
2023-03-24T10:13:28.062Z,15.64
2023-03-24T10:18:38.419Z,15.97
2023-03-24T10:23:47.492Z,15.46
2023-03-24T10:28:54.536Z,14.90
2023-03-24T10:33:58.066Z,14.66
2023-03-24T10:39:16.629Z,14.36
2023-03-24T10:44:25.190Z,14.14
2023-03-24T10:49:28.442Z,14.33
2023-03-24T10:54:32.741Z,14.52
2023-03-24T10:59:40.207Z,14.86
2023-03-24T11:04:49.758Z,15.00
2023-03-24T11:10:01.982Z,14.36
2023-03-24T11:15:21.314Z,13.87
2023-03-24T11:20:33.237Z,11.95
2023-03-24T11:25:40.084Z,11.88
2023-03-24T11:30:49.738Z,10.93
2023-03-24T11:36:03.183Z,11.71
2023-03-24T11:41:23.054Z,11.79
2023-03-24T11:46:27.743Z,12.67
2023-03-24T11:51:35.562Z,12.97
2023-03-24T11:56:43.820Z,13.22
2023-03-24T12:01:58.854Z,12.37
2023-03-24T12:07:32.092Z,12.73
2023-03-24T12:12:43.731Z,12.63
2023-03-24T12:17:58.217Z,12.18
2023-03-24T12:23:08.196Z,11.71
2023-03-24T12:28:28.518Z,12.63
2023-03-24T12:33:48.027Z,12.74
2023-03-24T12:39:01.249Z,12.92
2023-03-24T12:44:40.464Z,13.09
2023-03-24T12:50:08.868Z,13.10
2023-03-24T12:55:17.716Z,13.00
2023-03-24T13:00:25.963Z,13.36
2023-03-24T13:05:33.383Z,13.48
2023-03-24T13:10:40.539Z,12.89
2023-03-24T13:15:48.615Z,12.71
2023-03-24T13:20:57.020Z,12.11
2023-03-24T13:26:07.972Z,12.57
2023-03-24T13:31:13.189Z,12.84
2023-03-24T13:36:40.869Z,12.78
2023-03-24T13:41:51.057Z,13.28
2023-03-24T13:47:12.779Z,13.25
2023-03-24T13:52:29.132Z,13.13
2023-03-24T13:57:32.781Z,13.26
2023-03-24T14:02:47.084Z,13.43
2023-03-24T14:07:53.132Z,13.87
2023-03-24T14:13:02.960Z,14.17
2023-03-24T14:18:17.655Z,13.61
2023-03-24T14:23:31.669Z,13.35
2023-03-24T14:28:39.095Z,13.26
2023-03-24T14:34:05.895Z,13.15
2023-03-24T14:39:21.724Z,13.21
2023-03-24T14:44:57.282Z,12.74
2023-03-24T14:50:05.008Z,12.80
2023-03-24T14:55:16.479Z,13.14
2023-03-24T15:00:23.776Z,13.32
2023-03-24T15:05:31.139Z,12.97
2023-03-24T15:10:40.970Z,13.14
2023-03-24T15:15:48.734Z,13.12
2023-03-24T15:20:52.338Z,13.39
2023-03-24T15:25:58.575Z,13.59
2023-03-24T15:31:02.819Z,13.13
2023-03-24T15:36:16.603Z,13.19
2023-03-24T15:41:24.522Z,13.42
2023-03-24T15:46:29.797Z,13.39
2023-03-24T15:51:50.297Z,13.06
2023-03-24T15:57:20.376Z,13.18
2023-03-24T16:02:31.492Z,13.01
2023-03-24T16:07:37.633Z,12.46
2023-03-24T16:12:42.381Z,12.60
2023-03-24T16:17:45.886Z,12.52
2023-03-24T16:22:49.130Z,12.41
2023-03-24T16:27:53.770Z,12.22
2023-03-24T16:32:57.074Z,12.40
2023-03-24T16:38:00.415Z,12.08
2023-03-24T16:43:05.343Z,12.02
2023-03-24T16:48:08.747Z,12.24
2023-03-24T16:53:12.353Z,12.21
2023-03-24T16:58:18.243Z,12.05
2023-03-24T17:03:23.652Z,11.84
2023-03-24T17:08:27.049Z,11.89
2023-03-24T17:13:31.545Z,11.82
2023-03-24T17:18:34.838Z,11.57
2023-03-24T17:23:38.650Z,11.17
2023-03-24T17:28:43.326Z,10.99
2023-03-24T17:33:46.761Z,11.04
2023-03-24T17:38:49.908Z,10.74
2023-03-24T17:43:54.428Z,10.39
2023-03-24T17:48:57.613Z,10.19
2023-03-24T17:54:00.924Z,9.66
2023-03-24T17:59:05.975Z,9.67
2023-03-24T18:04:09.422Z,9.81
2023-03-24T18:09:12.598Z,9.64
2023-03-24T18:14:17.371Z,9.40
2023-03-24T18:19:21.043Z,8.71
2023-03-24T18:24:25.612Z,8.82
2023-03-24T18:29:30.459Z,8.65
2023-03-24T18:34:36.115Z,8.48
2023-03-24T18:39:40.684Z,8.09
2023-03-24T18:44:45.809Z,7.66
2023-03-24T18:49:48.958Z,7.60
2023-03-24T18:54:53.405Z,7.69
2023-03-24T19:00:01.215Z,7.54
2023-03-24T19:05:05.181Z,7.26
2023-03-24T19:10:09.094Z,7.14
2023-03-24T19:15:14.608Z,6.92
2023-03-24T19:20:17.941Z,6.91
2023-03-24T19:25:22.548Z,6.96
2023-03-24T19:30:27.513Z,6.83
2023-03-24T19:35:31.366Z,6.61
2023-03-24T19:40:34.976Z,6.70
2023-03-24T19:45:42.794Z,6.65
2023-03-24T19:50:46.706Z,6.20
2023-03-24T19:55:50.392Z,6.38
2023-03-24T20:00:55.245Z,6.16
2023-03-24T20:06:05.066Z,6.18
2023-03-24T20:11:09.466Z,6.48
2023-03-24T20:16:15.881Z,6.10
2023-03-24T20:21:22.834Z,6.28
2023-03-24T20:26:26.044Z,6.55
2023-03-24T20:31:30.670Z,7.08
2023-03-24T20:36:34.115Z,7.51
2023-03-24T20:41:37.306Z,8.04
2023-03-24T20:46:42.873Z,8.27
2023-03-24T20:51:48.527Z,8.68
2023-03-24T20:56:52.353Z,8.90
2023-03-24T21:01:58.422Z,9.00
2023-03-24T21:07:01.710Z,9.14
2023-03-24T21:12:06.616Z,9.29
2023-03-24T21:17:11.306Z,9.50
2023-03-24T21:22:15.925Z,9.58
2023-03-24T21:27:21.404Z,9.70
2023-03-24T21:32:26.550Z,9.86
2023-03-24T21:37:31.930Z,10.00
2023-03-24T21:42:35.147Z,10.05
2023-03-24T21:47:39.965Z,10.01
2023-03-24T21:52:46.976Z,9.89
2023-03-24T21:57:52.488Z,9.90
2023-03-24T22:02:58.315Z,9.94
2023-03-24T22:08:02.498Z,9.80
2023-03-24T22:13:05.780Z,9.67
2023-03-24T22:18:10.827Z,9.36
2023-03-24T22:23:14.334Z,8.96
2023-03-24T22:28:17.585Z,8.90
2023-03-24T22:33:22.448Z,8.55
2023-03-24T22:38:25.976Z,8.21
2023-03-24T22:43:30.404Z,8.04
2023-03-24T22:48:35.258Z,7.50
2023-03-24T22:53:38.346Z,7.47
2023-03-24T22:58:41.781Z,7.34
2023-03-24T23:03:46.510Z,7.22
2023-03-24T23:08:50.550Z,7.18
2023-03-24T23:13:54.133Z,7.11
2023-03-24T23:18:58.676Z,7.09
2023-03-24T23:24:01.883Z,7.24
2023-03-24T23:29:05.111Z,7.55
2023-03-24T23:34:11.987Z,7.90
2023-03-24T23:39:15.052Z,8.21
2023-03-24T23:44:19.804Z,8.26
2023-03-24T23:49:24.546Z,8.51
2023-03-24T23:54:27.665Z,8.47
2023-03-24T23:59:30.703Z,8.64
